sensor_id;sensor_type;location;lat;lon;timestamp;P1;durP1;ratioP1;P2;durP2;ratioP2
46653;SDS011;38960;51.074;17.004;2022-11-15T00:01:52;66.57;;;40.00;;
46653;SDS011;38960;51.074;17.004;2022-11-15T00:04:36;66.47;;;41.90;;
46653;SDS011;38960;51.074;17.004;2022-11-15T00:07:20;64.65;;;41.08;;
46653;SDS011;38960;51.074;17.004;2022-11-15T00:10:04;67.22;;;40.88;;
46653;SDS011;38960;51.074;17.004;2022-11-15T00:12:48;69.00;;;39.97;;
46653;SDS011;38960;51.074;17.004;2022-11-15T00:15:34;66.55;;;42.28;;
46653;SDS011;38960;51.074;17.004;2022-11-15T00:18:22;66.85;;;40.80;;
46653;SDS011;38960;51.074;17.004;2022-11-15T00:21:14;61.75;;;37.95;;
46653;SDS011;38960;51.074;17.004;2022-11-15T00:23:58;59.45;;;39.40;;
46653;SDS011;38960;51.074;17.004;2022-11-15T00:26:42;61.08;;;37.38;;
46653;SDS011;38960;51.074;17.004;2022-11-15T00:29:26;64.68;;;38.58;;
46653;SDS011;38960;51.074;17.004;2022-11-15T00:32:10;59.50;;;38.28;;
46653;SDS011;38960;51.074;17.004;2022-11-15T00:34:54;64.22;;;38.42;;
46653;SDS011;38960;51.074;17.004;2022-11-15T00:37:38;61.58;;;38.40;;
46653;SDS011;38960;51.074;17.004;2022-11-15T00:40:22;61.47;;;38.40;;
46653;SDS011;38960;51.074;17.004;2022-11-15T00:43:06;60.20;;;37.38;;
46653;SDS011;38960;51.074;17.004;2022-11-15T00:45:50;61.00;;;37.25;;
46653;SDS011;38960;51.074;17.004;2022-11-15T00:48:34;59.80;;;37.25;;
46653;SDS011;38960;51.074;17.004;2022-11-15T00:51:17;59.55;;;37.17;;
46653;SDS011;38960;51.074;17.004;2022-11-15T00:54:02;63.42;;;37.97;;
46653;SDS011;38960;51.074;17.004;2022-11-15T00:56:46;53.35;;;34.60;;
46653;SDS011;38960;51.074;17.004;2022-11-15T00:59:30;60.08;;;36.60;;
46653;SDS011;38960;51.074;17.004;2022-11-15T01:02:14;55.67;;;35.20;;
46653;SDS011;38960;51.074;17.004;2022-11-15T01:04:58;58.85;;;36.17;;
46653;SDS011;38960;51.074;17.004;2022-11-15T01:07:42;60.78;;;37.20;;
46653;SDS011;38960;51.074;17.004;2022-11-15T01:10:26;58.13;;;37.28;;
46653;SDS011;38960;51.074;17.004;2022-11-15T01:13:10;57.88;;;35.53;;
46653;SDS011;38960;51.074;17.004;2022-11-15T01:15:54;56.10;;;35.72;;
46653;SDS011;38960;51.074;17.004;2022-11-15T01:18:37;58.55;;;34.53;;
46653;SDS011;38960;51.074;17.004;2022-11-15T01:21:22;55.88;;;35.30;;
46653;SDS011;38960;51.074;17.004;2022-11-15T01:24:06;55.50;;;33.60;;
46653;SDS011;38960;51.074;17.004;2022-11-15T01:26:51;53.58;;;35.00;;
46653;SDS011;38960;51.074;17.004;2022-11-15T01:29:35;55.67;;;34.72;;
46653;SDS011;38960;51.074;17.004;2022-11-15T01:32:19;55.13;;;35.50;;
46653;SDS011;38960;51.074;17.004;2022-11-15T01:35:02;54.22;;;35.97;;
46653;SDS011;38960;51.074;17.004;2022-11-15T01:37:47;57.15;;;34.17;;
46653;SDS011;38960;51.074;17.004;2022-11-15T01:40:31;52.60;;;33.00;;
46653;SDS011;38960;51.074;17.004;2022-11-15T01:43:19;55.58;;;34.45;;
46653;SDS011;38960;51.074;17.004;2022-11-15T01:49:06;55.30;;;35.07;;
46653;SDS011;38960;51.074;17.004;2022-11-15T01:51:56;54.58;;;33.42;;
46653;SDS011;38960;51.074;17.004;2022-11-15T01:54:40;54.28;;;34.28;;
46653;SDS011;38960;51.074;17.004;2022-11-15T01:57:24;52.67;;;33.67;;
46653;SDS011;38960;51.074;17.004;2022-11-15T02:00:09;57.58;;;35.95;;
46653;SDS011;38960;51.074;17.004;2022-11-15T02:02:53;60.77;;;36.90;;
46653;SDS011;38960;51.074;17.004;2022-11-15T02:05:37;55.67;;;36.33;;
46653;SDS011;38960;51.074;17.004;2022-11-15T02:08:21;54.78;;;34.30;;
46653;SDS011;38960;51.074;17.004;2022-11-15T02:11:08;55.28;;;33.97;;
46653;SDS011;38960;51.074;17.004;2022-11-15T02:13:53;57.83;;;34.20;;
46653;SDS011;38960;51.074;17.004;2022-11-15T02:38:04;55.10;;;36.17;;
46653;SDS011;38960;51.074;17.004;2022-11-15T02:41:02;55.75;;;34.58;;
46653;SDS011;38960;51.074;17.004;2022-11-15T02:43:48;57.53;;;35.00;;
46653;SDS011;38960;51.074;17.004;2022-11-15T02:46:57;57.80;;;35.03;;
46653;SDS011;38960;51.074;17.004;2022-11-15T02:49:59;57.50;;;34.03;;
46653;SDS011;38960;51.074;17.004;2022-11-15T02:52:45;55.93;;;33.77;;
46653;SDS011;38960;51.074;17.004;2022-11-15T02:58:23;56.33;;;33.72;;
46653;SDS011;38960;51.074;17.004;2022-11-15T03:01:38;51.63;;;32.13;;
46653;SDS011;38960;51.074;17.004;2022-11-15T03:04:36;55.67;;;34.90;;
46653;SDS011;38960;51.074;17.004;2022-11-15T03:07:28;54.20;;;35.42;;
46653;SDS011;38960;51.074;17.004;2022-11-15T03:10:17;54.22;;;33.58;;
46653;SDS011;38960;51.074;17.004;2022-11-15T03:19:31;51.80;;;32.70;;
46653;SDS011;38960;51.074;17.004;2022-11-15T03:22:38;53.13;;;32.70;;
46653;SDS011;38960;51.074;17.004;2022-11-15T03:25:26;55.93;;;31.40;;
46653;SDS011;38960;51.074;17.004;2022-11-15T03:28:13;59.72;;;34.78;;
46653;SDS011;38960;51.074;17.004;2022-11-15T03:31:01;51.67;;;32.15;;
46653;SDS011;38960;51.074;17.004;2022-11-15T03:34:06;50.55;;;31.08;;
46653;SDS011;38960;51.074;17.004;2022-11-15T03:36:51;54.40;;;33.95;;
46653;SDS011;38960;51.074;17.004;2022-11-15T03:39:36;50.63;;;32.92;;
46653;SDS011;38960;51.074;17.004;2022-11-15T03:42:42;51.17;;;31.55;;
46653;SDS011;38960;51.074;17.004;2022-11-15T03:45:31;49.27;;;32.30;;
46653;SDS011;38960;51.074;17.004;2022-11-15T03:48:18;52.75;;;32.83;;
46653;SDS011;38960;51.074;17.004;2022-11-15T03:51:06;49.38;;;31.48;;
46653;SDS011;38960;51.074;17.004;2022-11-15T03:53:50;54.90;;;31.92;;
46653;SDS011;38960;51.074;17.004;2022-11-15T03:56:34;57.90;;;32.28;;
46653;SDS011;38960;51.074;17.004;2022-11-15T03:59:17;60.35;;;33.83;;
46653;SDS011;38960;51.074;17.004;2022-11-15T04:02:02;51.53;;;32.25;;
46653;SDS011;38960;51.074;17.004;2022-11-15T04:04:46;54.30;;;32.58;;
46653;SDS011;38960;51.074;17.004;2022-11-15T04:07:30;51.40;;;32.60;;
46653;SDS011;38960;51.074;17.004;2022-11-15T04:10:14;52.88;;;31.48;;
46653;SDS011;38960;51.074;17.004;2022-11-15T04:12:58;49.37;;;31.23;;
46653;SDS011;38960;51.074;17.004;2022-11-15T04:15:42;52.20;;;32.53;;
46653;SDS011;38960;51.074;17.004;2022-11-15T04:18:26;52.57;;;32.43;;
46653;SDS011;38960;51.074;17.004;2022-11-15T04:21:10;54.53;;;32.90;;
46653;SDS011;38960;51.074;17.004;2022-11-15T04:24:13;53.55;;;31.98;;
46653;SDS011;38960;51.074;17.004;2022-11-15T04:26:57;48.92;;;31.17;;
46653;SDS011;38960;51.074;17.004;2022-11-15T04:29:41;52.73;;;32.17;;
46653;SDS011;38960;51.074;17.004;2022-11-15T04:32:25;52.93;;;31.37;;
46653;SDS011;38960;51.074;17.004;2022-11-15T04:35:09;53.95;;;31.92;;
46653;SDS011;38960;51.074;17.004;2022-11-15T04:37:53;49.60;;;32.93;;
46653;SDS011;38960;51.074;17.004;2022-11-15T04:40:38;50.53;;;32.70;;
46653;SDS011;38960;51.074;17.004;2022-11-15T04:43:22;55.50;;;32.03;;
46653;SDS011;38960;51.074;17.004;2022-11-15T04:46:06;52.67;;;32.73;;
46653;SDS011;38960;51.074;17.004;2022-11-15T04:48:50;50.63;;;32.43;;
46653;SDS011;38960;51.074;17.004;2022-11-15T04:51:34;53.00;;;33.50;;
46653;SDS011;38960;51.074;17.004;2022-11-15T04:54:18;52.10;;;33.93;;
46653;SDS011;38960;51.074;17.004;2022-11-15T04:57:02;51.13;;;31.97;;
46653;SDS011;38960;51.074;17.004;2022-11-15T04:59:46;54.30;;;33.33;;
46653;SDS011;38960;51.074;17.004;2022-11-15T05:02:30;52.27;;;32.90;;
46653;SDS011;38960;51.074;17.004;2022-11-15T05:05:34;54.77;;;32.70;;
46653;SDS011;38960;51.074;17.004;2022-11-15T05:08:18;52.30;;;32.20;;
46653;SDS011;38960;51.074;17.004;2022-11-15T05:11:02;53.05;;;31.80;;
46653;SDS011;38960;51.074;17.004;2022-11-15T05:13:46;52.80;;;31.83;;
46653;SDS011;38960;51.074;17.004;2022-11-15T05:16:30;59.85;;;32.72;;
46653;SDS011;38960;51.074;17.004;2022-11-15T05:19:14;47.77;;;30.07;;
46653;SDS011;38960;51.074;17.004;2022-11-15T05:21:59;52.13;;;33.03;;
46653;SDS011;38960;51.074;17.004;2022-11-15T05:24:43;46.90;;;30.10;;
46653;SDS011;38960;51.074;17.004;2022-11-15T05:27:27;51.07;;;31.70;;
46653;SDS011;38960;51.074;17.004;2022-11-15T05:30:10;55.20;;;33.75;;
46653;SDS011;38960;51.074;17.004;2022-11-15T05:32:55;50.77;;;31.73;;
46653;SDS011;38960;51.074;17.004;2022-11-15T05:35:40;51.27;;;30.57;;
46653;SDS011;38960;51.074;17.004;2022-11-15T05:38:26;55.93;;;32.43;;
46653;SDS011;38960;51.074;17.004;2022-11-15T05:41:10;45.75;;;30.55;;
46653;SDS011;38960;51.074;17.004;2022-11-15T05:43:55;52.77;;;33.00;;
46653;SDS011;38960;51.074;17.004;2022-11-15T05:46:39;55.53;;;32.33;;
46653;SDS011;38960;51.074;17.004;2022-11-15T05:49:27;51.15;;;31.60;;
46653;SDS011;38960;51.074;17.004;2022-11-15T05:52:15;58.27;;;32.20;;
46653;SDS011;38960;51.074;17.004;2022-11-15T05:55:01;53.90;;;33.80;;
46653;SDS011;38960;51.074;17.004;2022-11-15T05:57:45;48.23;;;31.30;;
46653;SDS011;38960;51.074;17.004;2022-11-15T06:00:29;50.10;;;32.08;;
46653;SDS011;38960;51.074;17.004;2022-11-15T06:03:14;60.13;;;33.57;;
46653;SDS011;38960;51.074;17.004;2022-11-15T06:05:58;55.47;;;33.90;;
46653;SDS011;38960;51.074;17.004;2022-11-15T06:08:42;57.28;;;34.85;;
46653;SDS011;38960;51.074;17.004;2022-11-15T06:11:26;53.13;;;35.13;;
46653;SDS011;38960;51.074;17.004;2022-11-15T06:14:10;53.17;;;32.23;;
46653;SDS011;38960;51.074;17.004;2022-11-15T06:16:54;50.70;;;32.17;;
46653;SDS011;38960;51.074;17.004;2022-11-15T06:19:38;54.93;;;33.00;;
46653;SDS011;38960;51.074;17.004;2022-11-15T06:22:22;50.53;;;32.20;;
46653;SDS011;38960;51.074;17.004;2022-11-15T06:25:06;48.60;;;31.93;;
46653;SDS011;38960;51.074;17.004;2022-11-15T06:27:51;55.27;;;34.33;;
46653;SDS011;38960;51.074;17.004;2022-11-15T06:30:39;52.87;;;33.17;;
46653;SDS011;38960;51.074;17.004;2022-11-15T06:33:25;48.90;;;32.40;;
46653;SDS011;38960;51.074;17.004;2022-11-15T06:36:10;55.40;;;34.13;;
46653;SDS011;38960;51.074;17.004;2022-11-15T06:39:00;51.57;;;32.87;;
46653;SDS011;38960;51.074;17.004;2022-11-15T06:41:44;59.03;;;33.27;;
46653;SDS011;38960;51.074;17.004;2022-11-15T06:44:27;58.80;;;32.10;;
46653;SDS011;38960;51.074;17.004;2022-11-15T06:47:11;48.93;;;30.87;;
46653;SDS011;38960;51.074;17.004;2022-11-15T06:49:55;59.13;;;33.60;;
46653;SDS011;38960;51.074;17.004;2022-11-15T06:52:39;57.47;;;31.53;;
46653;SDS011;38960;51.074;17.004;2022-11-15T06:55:23;57.80;;;33.63;;
46653;SDS011;38960;51.074;17.004;2022-11-15T06:58:07;54.07;;;32.73;;
46653;SDS011;38960;51.074;17.004;2022-11-15T07:00:51;49.97;;;32.87;;
46653;SDS011;38960;51.074;17.004;2022-11-15T07:03:38;53.60;;;32.90;;
46653;SDS011;38960;51.074;17.004;2022-11-15T07:06:24;53.90;;;33.80;;
46653;SDS011;38960;51.074;17.004;2022-11-15T07:09:08;49.43;;;31.83;;
46653;SDS011;38960;51.074;17.004;2022-11-15T07:11:52;56.60;;;33.33;;
46653;SDS011;38960;51.074;17.004;2022-11-15T07:14:36;49.83;;;32.07;;
46653;SDS011;38960;51.074;17.004;2022-11-15T07:17:20;50.80;;;33.08;;
46653;SDS011;38960;51.074;17.004;2022-11-15T07:20:04;52.70;;;34.22;;
46653;SDS011;38960;51.074;17.004;2022-11-15T07:22:48;53.42;;;32.05;;
46653;SDS011;38960;51.074;17.004;2022-11-15T07:25:32;58.88;;;31.85;;
46653;SDS011;38960;51.074;17.004;2022-11-15T07:28:16;58.17;;;33.15;;
46653;SDS011;38960;51.074;17.004;2022-11-15T07:31:07;52.95;;;32.67;;
46653;SDS011;38960;51.074;17.004;2022-11-15T07:33:52;81.00;;;56.83;;
46653;SDS011;38960;51.074;17.004;2022-11-15T07:36:36;71.88;;;45.15;;
46653;SDS011;38960;51.074;17.004;2022-11-15T07:39:20;54.05;;;34.35;;
46653;SDS011;38960;51.074;17.004;2022-11-15T07:42:04;52.17;;;31.27;;
46653;SDS011;38960;51.074;17.004;2022-11-15T07:45:07;50.50;;;32.17;;
46653;SDS011;38960;51.074;17.004;2022-11-15T07:47:51;53.92;;;34.00;;
46653;SDS011;38960;51.074;17.004;2022-11-15T07:50:35;53.88;;;32.58;;
46653;SDS011;38960;51.074;17.004;2022-11-15T07:53:19;48.88;;;31.52;;
46653;SDS011;38960;51.074;17.004;2022-11-15T07:56:05;52.33;;;32.47;;
46653;SDS011;38960;51.074;17.004;2022-11-15T07:58:50;56.00;;;32.38;;
46653;SDS011;38960;51.074;17.004;2022-11-15T08:01:34;60.80;;;33.53;;
46653;SDS011;38960;51.074;17.004;2022-11-15T08:04:18;59.25;;;32.90;;
46653;SDS011;38960;51.074;17.004;2022-11-15T08:07:02;49.67;;;32.20;;
46653;SDS011;38960;51.074;17.004;2022-11-15T08:09:46;51.22;;;32.78;;
46653;SDS011;38960;51.074;17.004;2022-11-15T08:12:31;48.90;;;32.53;;
46653;SDS011;38960;51.074;17.004;2022-11-15T08:15:15;52.83;;;32.90;;
46653;SDS011;38960;51.074;17.004;2022-11-15T08:18:00;49.50;;;33.22;;
46653;SDS011;38960;51.074;17.004;2022-11-15T08:20:46;45.78;;;32.60;;
46653;SDS011;38960;51.074;17.004;2022-11-15T08:23:30;48.17;;;31.17;;
46653;SDS011;38960;51.074;17.004;2022-11-15T08:26:15;52.13;;;32.80;;
46653;SDS011;38960;51.074;17.004;2022-11-15T08:29:00;48.45;;;31.67;;
46653;SDS011;38960;51.074;17.004;2022-11-15T08:31:44;47.00;;;31.88;;
46653;SDS011;38960;51.074;17.004;2022-11-15T08:34:28;53.75;;;32.58;;
46653;SDS011;38960;51.074;17.004;2022-11-15T08:37:12;50.20;;;32.60;;
46653;SDS011;38960;51.074;17.004;2022-11-15T08:39:56;51.03;;;32.88;;
46653;SDS011;38960;51.074;17.004;2022-11-15T08:42:40;50.80;;;32.97;;
46653;SDS011;38960;51.074;17.004;2022-11-15T08:45:24;50.97;;;33.83;;
46653;SDS011;38960;51.074;17.004;2022-11-15T08:48:08;54.40;;;33.83;;
46653;SDS011;38960;51.074;17.004;2022-11-15T08:50:55;56.45;;;33.38;;
46653;SDS011;38960;51.074;17.004;2022-11-15T08:53:39;60.03;;;33.80;;
46653;SDS011;38960;51.074;17.004;2022-11-15T08:56:24;56.42;;;32.47;;
46653;SDS011;38960;51.074;17.004;2022-11-15T08:59:08;58.42;;;33.20;;
46653;SDS011;38960;51.074;17.004;2022-11-15T09:01:52;49.88;;;32.35;;
46653;SDS011;38960;51.074;17.004;2022-11-15T09:04:36;55.35;;;32.90;;
46653;SDS011;38960;51.074;17.004;2022-11-15T09:07:19;45.60;;;30.42;;
46653;SDS011;38960;51.074;17.004;2022-11-15T09:10:04;49.60;;;31.63;;
46653;SDS011;38960;51.074;17.004;2022-11-15T09:12:48;45.78;;;30.50;;
46653;SDS011;38960;51.074;17.004;2022-11-15T09:15:32;54.60;;;30.65;;
46653;SDS011;38960;51.074;17.004;2022-11-15T09:18:16;49.67;;;32.83;;
46653;SDS011;38960;51.074;17.004;2022-11-15T09:21:00;50.80;;;30.77;;
46653;SDS011;38960;51.074;17.004;2022-11-15T09:23:46;48.83;;;31.20;;
46653;SDS011;38960;51.074;17.004;2022-11-15T09:26:30;41.83;;;27.67;;
46653;SDS011;38960;51.074;17.004;2022-11-15T09:29:14;48.55;;;26.52;;
46653;SDS011;38960;51.074;17.004;2022-11-15T09:31:58;40.38;;;27.55;;
46653;SDS011;38960;51.074;17.004;2022-11-15T09:34:42;41.90;;;28.30;;
46653;SDS011;38960;51.074;17.004;2022-11-15T09:37:26;48.35;;;29.15;;
46653;SDS011;38960;51.074;17.004;2022-11-15T09:40:11;49.10;;;28.15;;
46653;SDS011;38960;51.074;17.004;2022-11-15T09:43:13;42.40;;;26.55;;
46653;SDS011;38960;51.074;17.004;2022-11-15T09:48:56;38.50;;;28.58;;
46653;SDS011;38960;51.074;17.004;2022-11-15T09:51:33;45.85;;;26.75;;
46653;SDS011;38960;51.074;17.004;2022-11-15T09:56:41;47.10;;;29.10;;
46653;SDS011;38960;51.074;17.004;2022-11-15T10:04:23;34.55;;;25.40;;
46653;SDS011;38960;51.074;17.004;2022-11-15T10:06:55;35.92;;;24.70;;
46653;SDS011;38960;51.074;17.004;2022-11-15T10:09:42;31.63;;;22.90;;
46653;SDS011;38960;51.074;17.004;2022-11-15T10:12:18;35.17;;;23.95;;
46653;SDS011;38960;51.074;17.004;2022-11-15T10:14:45;40.10;;;24.25;;
46653;SDS011;38960;51.074;17.004;2022-11-15T10:20:07;35.08;;;24.63;;
46653;SDS011;38960;51.074;17.004;2022-11-15T10:22:44;40.30;;;22.52;;
46653;SDS011;38960;51.074;17.004;2022-11-15T10:27:43;35.28;;;22.15;;
46653;SDS011;38960;51.074;17.004;2022-11-15T10:30:20;29.60;;;21.65;;
46653;SDS011;38960;51.074;17.004;2022-11-15T10:32:46;35.33;;;20.95;;
46653;SDS011;38960;51.074;17.004;2022-11-15T10:35:17;30.13;;;19.15;;
46653;SDS011;38960;51.074;17.004;2022-11-15T10:38:04;25.38;;;19.25;;
46653;SDS011;38960;51.074;17.004;2022-11-15T10:40:30;20.73;;;16.27;;
46653;SDS011;38960;51.074;17.004;2022-11-15T10:45:41;21.67;;;15.15;;
46653;SDS011;38960;51.074;17.004;2022-11-15T10:50:46;23.90;;;16.77;;
46653;SDS011;38960;51.074;17.004;2022-11-15T10:53:17;21.85;;;16.27;;
46653;SDS011;38960;51.074;17.004;2022-11-15T10:55:48;22.02;;;16.00;;
46653;SDS011;38960;51.074;17.004;2022-11-15T11:00:50;22.15;;;16.35;;
46653;SDS011;38960;51.074;17.004;2022-11-15T11:06:04;20.80;;;14.63;;
46653;SDS011;38960;51.074;17.004;2022-11-15T11:08:33;17.83;;;14.35;;
46653;SDS011;38960;51.074;17.004;2022-11-15T11:10:59;18.52;;;13.70;;
46653;SDS011;38960;51.074;17.004;2022-11-15T11:13:36;18.98;;;14.05;;
46653;SDS011;38960;51.074;17.004;2022-11-15T11:16:20;20.15;;;14.25;;
46653;SDS011;38960;51.074;17.004;2022-11-15T11:24:40;17.27;;;12.07;;
46653;SDS011;38960;51.074;17.004;2022-11-15T11:30:20;17.55;;;12.23;;
46653;SDS011;38960;51.074;17.004;2022-11-15T11:35:17;21.27;;;13.27;;
46653;SDS011;38960;51.074;17.004;2022-11-15T11:37:47;23.80;;;14.80;;
46653;SDS011;38960;51.074;17.004;2022-11-15T11:40:29;20.77;;;14.60;;
46653;SDS011;38960;51.074;17.004;2022-11-15T11:50:46;18.40;;;13.90;;
46653;SDS011;38960;51.074;17.004;2022-11-15T11:53:13;18.30;;;13.27;;
46653;SDS011;38960;51.074;17.004;2022-11-15T11:55:54;18.98;;;14.48;;
46653;SDS011;38960;51.074;17.004;2022-11-15T11:58:33;23.05;;;13.57;;
46653;SDS011;38960;51.074;17.004;2022-11-15T12:01:13;17.48;;;12.13;;
46653;SDS011;38960;51.074;17.004;2022-11-15T12:03:45;13.27;;;10.88;;
46653;SDS011;38960;51.074;17.004;2022-11-15T12:11:57;17.80;;;12.43;;
46653;SDS011;38960;51.074;17.004;2022-11-15T12:14:31;15.52;;;12.00;;
46653;SDS011;38960;51.074;17.004;2022-11-15T12:17:00;18.92;;;13.43;;
46653;SDS011;38960;51.074;17.004;2022-11-15T12:19:26;17.02;;;12.27;;
46653;SDS011;38960;51.074;17.004;2022-11-15T12:22:02;15.93;;;12.00;;
46653;SDS011;38960;51.074;17.004;2022-11-15T12:24:48;16.65;;;12.52;;
46653;SDS011;38960;51.074;17.004;2022-11-15T12:27:26;16.75;;;12.82;;
46653;SDS011;38960;51.074;17.004;2022-11-15T12:29:58;16.38;;;12.30;;
46653;SDS011;38960;51.074;17.004;2022-11-15T12:32:32;14.20;;;12.10;;
46653;SDS011;38960;51.074;17.004;2022-11-15T12:35:00;16.27;;;12.25;;
46653;SDS011;38960;51.074;17.004;2022-11-15T12:45:37;15.20;;;11.18;;
46653;SDS011;38960;51.074;17.004;2022-11-15T13:06:41;15.65;;;12.27;;
46653;SDS011;38960;51.074;17.004;2022-11-15T13:11:54;16.98;;;13.10;;
46653;SDS011;38960;51.074;17.004;2022-11-15T13:17:02;18.33;;;12.85;;
46653;SDS011;38960;51.074;17.004;2022-11-15T13:19:35;17.88;;;13.18;;
46653;SDS011;38960;51.074;17.004;2022-11-15T13:22:04;20.60;;;14.02;;
46653;SDS011;38960;51.074;17.004;2022-11-15T13:24:48;22.70;;;14.93;;
46653;SDS011;38960;51.074;17.004;2022-11-15T13:27:18;17.88;;;13.98;;
46653;SDS011;38960;51.074;17.004;2022-11-15T13:29:44;15.73;;;13.30;;
46653;SDS011;38960;51.074;17.004;2022-11-15T13:32:11;18.45;;;13.85;;
46653;SDS011;38960;51.074;17.004;2022-11-15T13:34:38;21.67;;;15.30;;
46653;SDS011;38960;51.074;17.004;2022-11-15T13:40:15;20.17;;;14.25;;
46653;SDS011;38960;51.074;17.004;2022-11-15T13:42:41;22.30;;;15.07;;
46653;SDS011;38960;51.074;17.004;2022-11-15T13:45:11;20.08;;;15.18;;
46653;SDS011;38960;51.074;17.004;2022-11-15T13:47:40;17.92;;;14.85;;
46653;SDS011;38960;51.074;17.004;2022-11-15T13:50:10;22.75;;;16.05;;
46653;SDS011;38960;51.074;17.004;2022-11-15T13:52:38;22.73;;;16.00;;
46653;SDS011;38960;51.074;17.004;2022-11-15T13:55:20;20.88;;;16.05;;
46653;SDS011;38960;51.074;17.004;2022-11-15T13:57:48;25.52;;;17.75;;
46653;SDS011;38960;51.074;17.004;2022-11-15T14:00:24;24.60;;;17.95;;
46653;SDS011;38960;51.074;17.004;2022-11-15T14:05:58;21.20;;;16.48;;
46653;SDS011;38960;51.074;17.004;2022-11-15T14:11:06;20.52;;;15.82;;
46653;SDS011;38960;51.074;17.004;2022-11-15T14:13:33;28.23;;;17.95;;
46653;SDS011;38960;51.074;17.004;2022-11-15T14:16:18;23.98;;;15.93;;
46653;SDS011;38960;51.074;17.004;2022-11-15T14:18:49;28.77;;;18.23;;
46653;SDS011;38960;51.074;17.004;2022-11-15T14:21:16;24.57;;;17.03;;
46653;SDS011;38960;51.074;17.004;2022-11-15T14:23:43;23.00;;;17.00;;
46653;SDS011;38960;51.074;17.004;2022-11-15T14:28:52;24.90;;;16.90;;
46653;SDS011;38960;51.074;17.004;2022-11-15T14:31:17;27.95;;;19.73;;
46653;SDS011;38960;51.074;17.004;2022-11-15T14:33:44;21.65;;;15.77;;
46653;SDS011;38960;51.074;17.004;2022-11-15T14:36:17;24.17;;;18.58;;
46653;SDS011;38960;51.074;17.004;2022-11-15T14:38:44;26.77;;;18.63;;
46653;SDS011;38960;51.074;17.004;2022-11-15T14:46:08;22.42;;;15.60;;
46653;SDS011;38960;51.074;17.004;2022-11-15T14:48:33;21.00;;;16.05;;
46653;SDS011;38960;51.074;17.004;2022-11-15T14:50:59;23.92;;;16.50;;
46653;SDS011;38960;51.074;17.004;2022-11-15T14:53:25;25.75;;;17.58;;
46653;SDS011;38960;51.074;17.004;2022-11-15T14:55:50;25.92;;;17.42;;
46653;SDS011;38960;51.074;17.004;2022-11-15T14:58:16;23.17;;;17.40;;
46653;SDS011;38960;51.074;17.004;2022-11-15T15:00:41;25.55;;;18.33;;
46653;SDS011;38960;51.074;17.004;2022-11-15T15:03:07;27.58;;;19.20;;
46653;SDS011;38960;51.074;17.004;2022-11-15T15:05:36;24.58;;;18.33;;
46653;SDS011;38960;51.074;17.004;2022-11-15T15:08:04;27.88;;;19.65;;
46653;SDS011;38960;51.074;17.004;2022-11-15T15:10:34;29.85;;;19.52;;
46653;SDS011;38960;51.074;17.004;2022-11-15T15:13:02;27.75;;;19.13;;
46653;SDS011;38960;51.074;17.004;2022-11-15T15:15:37;40.10;;;23.95;;
46653;SDS011;38960;51.074;17.004;2022-11-15T15:18:03;29.52;;;19.90;;
46653;SDS011;38960;51.074;17.004;2022-11-15T15:20:30;32.40;;;23.73;;
46653;SDS011;38960;51.074;17.004;2022-11-15T15:22:56;32.28;;;21.52;;
46653;SDS011;38960;51.074;17.004;2022-11-15T15:25:29;40.85;;;28.73;;
46653;SDS011;38960;51.074;17.004;2022-11-15T15:27:58;40.40;;;27.15;;
46653;SDS011;38960;51.074;17.004;2022-11-15T15:30:24;36.75;;;26.35;;
46653;SDS011;38960;51.074;17.004;2022-11-15T15:32:50;40.92;;;25.65;;
46653;SDS011;38960;51.074;17.004;2022-11-15T15:35:16;35.67;;;23.80;;
46653;SDS011;38960;51.074;17.004;2022-11-15T15:37:43;45.67;;;22.45;;
46653;SDS011;38960;51.074;17.004;2022-11-15T15:42:45;29.35;;;19.80;;
46653;SDS011;38960;51.074;17.004;2022-11-15T15:45:11;31.33;;;19.33;;
46653;SDS011;38960;51.074;17.004;2022-11-15T15:47:36;38.83;;;21.48;;
46653;SDS011;38960;51.074;17.004;2022-11-15T15:50:03;29.40;;;20.33;;
46653;SDS011;38960;51.074;17.004;2022-11-15T15:52:29;39.97;;;20.70;;
46653;SDS011;38960;51.074;17.004;2022-11-15T15:54:55;40.03;;;20.00;;
46653;SDS011;38960;51.074;17.004;2022-11-15T15:57:20;33.90;;;20.55;;
46653;SDS011;38960;51.074;17.004;2022-11-15T15:59:46;31.77;;;21.83;;
46653;SDS011;38960;51.074;17.004;2022-11-15T16:02:12;37.38;;;22.20;;
46653;SDS011;38960;51.074;17.004;2022-11-15T16:04:38;36.72;;;24.45;;
46653;SDS011;38960;51.074;17.004;2022-11-15T16:07:03;39.88;;;24.45;;
46653;SDS011;38960;51.074;17.004;2022-11-15T16:09:29;35.00;;;23.85;;
46653;SDS011;38960;51.074;17.004;2022-11-15T16:12:14;35.45;;;23.00;;
46653;SDS011;38960;51.074;17.004;2022-11-15T16:14:41;36.38;;;24.02;;
46653;SDS011;38960;51.074;17.004;2022-11-15T16:17:13;42.30;;;26.52;;
46653;SDS011;38960;51.074;17.004;2022-11-15T16:19:42;44.15;;;25.70;;
46653;SDS011;38960;51.074;17.004;2022-11-15T16:22:08;39.22;;;25.83;;
46653;SDS011;38960;51.074;17.004;2022-11-15T16:24:33;54.20;;;26.30;;
46653;SDS011;38960;51.074;17.004;2022-11-15T16:26:59;38.75;;;24.73;;
46653;SDS011;38960;51.074;17.004;2022-11-15T16:29:24;51.30;;;29.48;;
46653;SDS011;38960;51.074;17.004;2022-11-15T16:31:50;48.60;;;28.90;;
46653;SDS011;38960;51.074;17.004;2022-11-15T16:34:15;55.42;;;31.95;;
46653;SDS011;38960;51.074;17.004;2022-11-15T16:36:41;48.70;;;29.98;;
46653;SDS011;38960;51.074;17.004;2022-11-15T16:39:08;53.40;;;30.92;;
46653;SDS011;38960;51.074;17.004;2022-11-15T16:41:36;48.58;;;29.15;;
46653;SDS011;38960;51.074;17.004;2022-11-15T16:44:01;49.13;;;28.95;;
46653;SDS011;38960;51.074;17.004;2022-11-15T16:46:27;49.20;;;27.55;;
46653;SDS011;38960;51.074;17.004;2022-11-15T16:48:55;54.90;;;29.05;;
46653;SDS011;38960;51.074;17.004;2022-11-15T16:51:30;50.03;;;27.98;;
46653;SDS011;38960;51.074;17.004;2022-11-15T16:53:56;51.58;;;26.63;;
46653;SDS011;38960;51.074;17.004;2022-11-15T16:56:27;53.30;;;26.75;;
46653;SDS011;38960;51.074;17.004;2022-11-15T16:58:56;57.45;;;31.45;;
46653;SDS011;38960;51.074;17.004;2022-11-15T17:01:26;62.17;;;36.40;;
46653;SDS011;38960;51.074;17.004;2022-11-15T17:03:53;58.17;;;33.70;;
46653;SDS011;38960;51.074;17.004;2022-11-15T17:06:19;60.15;;;33.05;;
46653;SDS011;38960;51.074;17.004;2022-11-15T17:08:46;48.30;;;31.23;;
46653;SDS011;38960;51.074;17.004;2022-11-15T17:11:20;58.78;;;32.22;;
46653;SDS011;38960;51.074;17.004;2022-11-15T17:13:46;57.95;;;31.45;;
46653;SDS011;38960;51.074;17.004;2022-11-15T17:16:14;53.45;;;31.45;;
46653;SDS011;38960;51.074;17.004;2022-11-15T17:18:41;53.20;;;31.70;;
46653;SDS011;38960;51.074;17.004;2022-11-15T17:21:16;59.88;;;31.17;;
46653;SDS011;38960;51.074;17.004;2022-11-15T17:23:43;70.10;;;34.33;;
46653;SDS011;38960;51.074;17.004;2022-11-15T17:26:10;59.63;;;30.83;;
46653;SDS011;38960;51.074;17.004;2022-11-15T17:28:37;53.75;;;29.88;;
46653;SDS011;38960;51.074;17.004;2022-11-15T17:31:07;54.00;;;27.70;;
46653;SDS011;38960;51.074;17.004;2022-11-15T17:33:34;49.75;;;28.20;;